Home PIREPS Pireps

Flight BEL914

  • Submitted By: Serge Morabito
  • Departure Airport: Flughafen Wien-Schwechat (LOWW)
  • Arrival Airport: Malaga airport (LEMG)
  • Aircraft: A320-214 (OO-SNB)
  • Flight Time: 03.20
  • Date Submitted: 25/09/2016
  • Route: OSPEN UM138 ABRUK UM984 DIVKO UN975 BCN UM985 VIBAS
  • Status: Accepted
Flight Details
Gross Revenue:
(143 load / € 0.00 per unit
€ 0.00
Fuel Cost:
(7719 fuel used @ 0 / unit)
€ 0.00

Additional Log Information:

View Log

Aircraft Used in flight is A320 neo (v2.6r2) Brussels Airlines
13:23 Brakes are On
13:27 Brakes are Released
13:27 Brakes are On
13:29 Brakes are Released
13:35 Brakes are On
13:35 Brakes are Released
13:39 You Took off @ 166 Knots and Flaps at Position 3
Departure Weather
LOWW 251120Z 11006KT 050V140 9999 FEW040 SCT300 21/09 Q1021 NOSIGrn
13:39 Landing Gear Up @ 170 Knots and 690 Feet
13:43 Above FL100 you need to switch of the landing lights
13:47 You exceeded maximum bank angle
13:49 Brakes are On
16:35 Landing Gear Down @ 152 Knots and 2790 Feet
16:38 You Landed @ 131 Knots and with -150 Vertical Speed
Arrival Weather
LEMG 251400Z 13008KT 100V160 9999 FEW030 25/18 Q1018 NOSIGrn
16:39 Brakes are Released
16:40 Brakes are On
16:40 Brakes are Released
16:40 Brakes are On
16:40 Brakes are Released
16:40 Brakes are On
16:40 Brakes are Released
16:40 Brakes are On
16:43 Brussels Bel-Track1.0.1.2

Comments

Commenter Comment
Serge Morabito 5

Route Map

Corporate About Us Our Team Vacancies Information Fleet Route Network Rules and Regulations Operations Flight Schedules Event Center Tours Partners IVAO Vatsim Acars dev FSCB

fb Users Online No pilots online!
0 Pilot(s) and 107 Guest(s) Online
CMS by phpVMS - Design by Crazycreatives.com - Copyright © 2019 - Brussels Airlines Virtual